createdAt,value
2018-05-14T00:00:36.784Z,98205.00
2018-05-14T00:03:05.305Z,98203.39
2018-05-14T00:05:34.008Z,98190.30
2018-05-14T00:08:06.916Z,98197.73
2018-05-14T00:10:35.475Z,98197.30
2018-05-14T00:13:04.055Z,98201.44
2018-05-14T00:15:32.618Z,98209.56
2018-05-14T00:18:01.135Z,98208.94
2018-05-14T00:20:29.735Z,98196.91
2018-05-14T00:22:58.287Z,98198.96
2018-05-14T00:25:26.872Z,98203.32
2018-05-14T00:27:55.456Z,98206.07
2018-05-14T00:30:24.077Z,98198.09
2018-05-14T00:32:52.664Z,98201.79
2018-05-14T00:35:21.259Z,98204.27
2018-05-14T00:37:50.080Z,98210.54
2018-05-14T00:40:18.978Z,98214.44
2018-05-14T00:42:48.242Z,98212.77
2018-05-14T00:45:18.327Z,98217.77
2018-05-14T00:47:47.841Z,98216.45
2018-05-14T00:50:17.190Z,98214.81
2018-05-14T00:52:45.914Z,98214.36
2018-05-14T00:55:18.647Z,98208.00
2018-05-14T00:57:47.302Z,98214.08
2018-05-14T01:00:15.824Z,98207.35
2018-05-14T01:02:44.621Z,98207.30
2018-05-14T01:05:13.330Z,98206.81
2018-05-14T01:07:42.597Z,98207.00
2018-05-14T01:10:12.549Z,98197.73
2018-05-14T01:12:41.738Z,98204.16
2018-05-14T01:15:10.926Z,98208.53
2018-05-14T01:17:39.504Z,98197.84
2018-05-14T01:20:08.998Z,98200.45
2018-05-14T01:22:37.538Z,98207.06
2018-05-14T01:25:07.103Z,98205.03
2018-05-14T01:27:35.627Z,98213.80
2018-05-14T01:30:04.385Z,98209.06
2018-05-14T01:32:33.802Z,98211.08
2018-05-14T01:35:03.384Z,98220.69
2018-05-14T01:37:33.410Z,98229.64
2018-05-14T01:40:02.998Z,98236.84
2018-05-14T01:42:32.477Z,98244.16
2018-05-14T01:45:01.177Z,98244.88
2018-05-14T01:47:29.955Z,98249.25
2018-05-14T01:49:59.322Z,98243.52
2018-05-14T01:52:28.094Z,98251.97
2018-05-14T01:54:56.902Z,98256.63
2018-05-14T01:57:25.615Z,98258.98
2018-05-14T01:59:54.210Z,98258.30
2018-05-14T02:02:23.038Z,98258.53
2018-05-14T02:04:51.725Z,98261.81
2018-05-14T02:07:21.622Z,98259.19
2018-05-14T02:09:50.984Z,98264.08
2018-05-14T02:12:19.694Z,98260.94
2018-05-14T02:14:48.321Z,98270.64
2018-05-14T02:17:17.791Z,98261.50
2018-05-14T02:19:46.312Z,98259.45
2018-05-14T02:22:15.869Z,98267.72
2018-05-14T02:24:44.424Z,98269.27
2018-05-14T02:27:13.082Z,98275.91
2018-05-14T02:29:41.732Z,98276.45
2018-05-14T02:32:10.496Z,98273.47
2018-05-14T02:34:39.159Z,98277.17
2018-05-14T02:37:08.776Z,98279.92
2018-05-14T02:39:38.161Z,98284.70
2018-05-14T02:42:09.005Z,98275.72
2018-05-14T02:44:37.923Z,98278.81
2018-05-14T02:47:06.518Z,98269.16
2018-05-14T02:49:35.700Z,98273.11
2018-05-14T02:52:05.195Z,98278.05
2018-05-14T02:54:34.165Z,98279.16
2018-05-14T02:57:02.886Z,98275.73
2018-05-14T02:59:31.593Z,98279.16
2018-05-14T03:02:00.323Z,98281.05
2018-05-14T03:04:28.818Z,98294.23
2018-05-14T03:06:57.448Z,98301.14
2018-05-14T03:09:26.406Z,98303.83
2018-05-14T03:11:57.445Z,98306.23
2018-05-14T03:14:26.952Z,98311.83
2018-05-14T03:16:55.709Z,98300.86
2018-05-14T03:19:24.434Z,98301.63
2018-05-14T03:21:53.065Z,98299.95
2018-05-14T03:24:22.612Z,98291.48
2018-05-14T03:26:51.291Z,98293.47
2018-05-14T03:29:19.879Z,98300.38
2018-05-14T03:31:48.362Z,98306.72
2018-05-14T03:34:17.101Z,98314.99
2018-05-14T03:36:45.848Z,98316.11
2018-05-14T03:39:14.483Z,98312.38
2018-05-14T03:41:43.785Z,98310.58
2018-05-14T03:44:13.991Z,98305.59
2018-05-14T03:46:42.973Z,98297.50
2018-05-14T03:49:11.715Z,98294.69
2018-05-14T03:51:40.609Z,98292.74
2018-05-14T03:54:09.352Z,98298.03
2018-05-14T03:56:38.685Z,98305.59
2018-05-14T03:59:25.851Z,98315.05
2018-05-14T04:05:21.270Z,98313.84
2018-05-14T04:07:50.495Z,98319.66
2018-05-14T04:10:19.440Z,98324.56
2018-05-14T04:12:48.785Z,98324.00
2018-05-14T04:15:18.449Z,98326.37
2018-05-14T04:17:47.025Z,98322.02
2018-05-14T04:20:16.547Z,98328.23
2018-05-14T04:22:45.993Z,98334.15
2018-05-14T04:25:14.700Z,98334.86
2018-05-14T04:27:43.557Z,98339.91
2018-05-14T04:30:12.385Z,98348.66
2018-05-14T04:32:41.193Z,98347.84
2018-05-14T04:35:10.771Z,98343.33
2018-05-14T04:37:39.502Z,98347.35
2018-05-14T04:40:08.476Z,98352.59
2018-05-14T04:42:37.515Z,98358.33
2018-05-14T04:45:06.389Z,98353.53
2018-05-14T04:47:35.816Z,98356.25
2018-05-14T04:50:04.458Z,98355.02
2018-05-14T04:52:33.089Z,98354.87
2018-05-14T04:55:01.758Z,98357.85
2018-05-14T04:57:30.319Z,98352.97
2018-05-14T04:59:59.718Z,98343.72
2018-05-14T05:02:28.317Z,98343.16
2018-05-14T05:04:56.906Z,98340.27
2018-05-14T05:07:25.582Z,98336.12
2018-05-14T05:09:54.981Z,98343.45
2018-05-14T05:12:23.683Z,98341.53
2018-05-14T05:14:52.962Z,98354.41
2018-05-14T05:17:21.921Z,98344.00
2018-05-14T05:19:50.493Z,98348.16
2018-05-14T05:22:19.099Z,98354.23
2018-05-14T05:24:47.680Z,98359.14
2018-05-14T05:27:16.330Z,98350.41
2018-05-14T05:29:44.936Z,98351.77
2018-05-14T05:32:13.431Z,98357.78
2018-05-14T05:34:42.154Z,98360.14
2018-05-14T05:37:10.769Z,98355.03
2018-05-14T05:39:40.274Z,98354.42
2018-05-14T05:42:08.931Z,98353.54
2018-05-14T05:44:37.455Z,98356.00
2018-05-14T05:47:06.138Z,98361.11
2018-05-14T05:49:35.736Z,98365.94
2018-05-14T05:52:04.684Z,98363.70
2018-05-14T05:54:33.390Z,98364.97
2018-05-14T05:57:03.838Z,98366.00
2018-05-14T05:59:32.573Z,98367.84
2018-05-14T06:02:01.193Z,98375.44
2018-05-14T06:04:29.819Z,98366.81
2018-05-14T06:06:58.440Z,98364.22
2018-05-14T06:09:28.992Z,98361.72
2018-05-14T06:11:57.714Z,98368.80
2018-05-14T06:14:26.264Z,98365.98
2018-05-14T06:16:55.109Z,98365.67
2018-05-14T06:19:24.186Z,98377.90
2018-05-14T06:21:54.358Z,98376.20
2018-05-14T06:24:23.228Z,98377.85
2018-05-14T06:26:53.062Z,98374.02
2018-05-14T06:29:21.899Z,98379.64
2018-05-14T06:31:52.729Z,98372.59
2018-05-14T06:34:22.723Z,98380.03
2018-05-14T06:36:52.735Z,98382.53
2018-05-14T06:39:21.637Z,98369.25
2018-05-14T06:41:51.959Z,98368.37
2018-05-14T06:44:24.660Z,98373.52
2018-05-14T06:46:56.787Z,98383.83
2018-05-14T06:49:26.235Z,98382.46
2018-05-14T06:51:57.998Z,98385.34
2018-05-14T06:54:26.515Z,98383.69
2018-05-14T06:56:55.594Z,98385.02
2018-05-14T06:59:24.812Z,98391.66
2018-05-14T07:01:57.522Z,98393.70
2018-05-14T07:04:29.847Z,98397.14
2018-05-14T07:07:02.029Z,98398.81
2018-05-14T07:09:33.311Z,98397.44
2018-05-14T07:12:04.765Z,98395.06
2018-05-14T07:14:37.232Z,98394.76
2018-05-14T07:17:09.212Z,98383.67
2018-05-14T07:19:39.751Z,98384.13
2018-05-14T07:22:10.677Z,98383.19
2018-05-14T07:24:41.934Z,98387.69
2018-05-14T07:27:12.926Z,98387.83
2018-05-14T07:29:44.957Z,98375.41
2018-05-14T07:32:15.902Z,98381.34
2018-05-14T07:34:45.479Z,98375.84
2018-05-14T07:37:15.996Z,98381.56
2018-05-14T07:39:45.743Z,98365.86
2018-05-14T07:42:15.115Z,98367.23
2018-05-14T07:44:46.610Z,98371.28
2018-05-14T07:47:16.561Z,98371.02
2018-05-14T07:49:45.278Z,98369.37
2018-05-14T07:52:19.177Z,98387.59
2018-05-14T07:54:48.934Z,98389.62
2018-05-14T07:57:17.625Z,98397.20
2018-05-14T07:59:46.149Z,98400.26
2018-05-14T08:02:14.936Z,98397.61
2018-05-14T08:04:43.846Z,98398.23
2018-05-14T08:07:12.791Z,98395.47
2018-05-14T08:09:42.950Z,98401.39
2018-05-14T08:12:12.959Z,98401.14
2018-05-14T08:14:41.544Z,98405.70
2018-05-14T08:17:10.590Z,98405.76
2018-05-14T08:19:40.458Z,98406.20
2018-05-14T08:22:12.949Z,98401.60
2018-05-14T08:24:41.711Z,98408.50
2018-05-14T08:27:10.623Z,98412.91
2018-05-14T08:29:39.623Z,98412.22
2018-05-14T08:32:08.332Z,98410.72
2018-05-14T08:34:37.662Z,98412.53
2018-05-14T08:37:06.478Z,98412.39
2018-05-14T08:39:36.500Z,98409.70
2018-05-14T08:42:06.063Z,98404.70
2018-05-14T08:44:36.464Z,98404.14
2018-05-14T08:47:05.435Z,98400.94
2018-05-14T08:49:35.707Z,98398.80
2018-05-14T08:52:05.173Z,98402.94
2018-05-14T08:54:34.724Z,98401.13
2018-05-14T08:57:04.424Z,98403.59
2018-05-14T08:59:33.119Z,98403.20
2018-05-14T09:02:01.678Z,98403.66
2018-05-14T09:04:30.816Z,98399.71
2018-05-14T09:07:00.340Z,98400.77
2018-05-14T09:09:29.763Z,98405.13
2018-05-14T09:11:58.300Z,98393.42
2018-05-14T09:14:27.867Z,98394.27
2018-05-14T09:16:57.306Z,98400.17
2018-05-14T09:19:27.491Z,98389.45
2018-05-14T09:21:57.036Z,98389.27
2018-05-14T09:24:25.935Z,98388.62
2018-05-14T09:26:54.615Z,98390.98
2018-05-14T09:29:24.303Z,98393.66
2018-05-14T09:31:54.288Z,98402.98
2018-05-14T09:34:22.844Z,98407.61
2018-05-14T09:36:51.982Z,98403.28
2018-05-14T09:39:21.531Z,98398.44
2018-05-14T09:41:51.128Z,98402.34
2018-05-14T09:44:21.654Z,98406.72
2018-05-14T09:46:51.363Z,98408.25
2018-05-14T09:49:22.321Z,98411.47
2018-05-14T09:51:51.727Z,98411.45
2018-05-14T09:54:20.658Z,98420.65
2018-05-14T09:56:51.413Z,98426.28
2018-05-14T09:59:21.333Z,98432.08
2018-05-14T10:02:01.535Z,98423.72
2018-05-14T10:04:31.237Z,98433.13
2018-05-14T10:07:01.050Z,98437.78
2018-05-14T10:09:30.919Z,98441.34
2018-05-14T10:12:00.146Z,98441.59
2018-05-14T10:14:28.811Z,98451.30
2018-05-14T10:16:57.635Z,98447.19
2018-05-14T10:19:26.202Z,98448.63
2018-05-14T10:21:55.680Z,98441.69
2018-05-14T10:24:24.803Z,98447.32
2018-05-14T10:26:53.815Z,98439.30
2018-05-14T10:29:23.335Z,98444.94
2018-05-14T10:31:51.940Z,98443.02
2018-05-14T10:34:20.756Z,98441.50
2018-05-14T10:36:49.648Z,98445.66
2018-05-14T10:39:18.412Z,98441.94
2018-05-14T10:41:49.424Z,98441.94
2018-05-14T10:44:19.898Z,98438.32
2018-05-14T10:46:49.104Z,98439.22
2018-05-14T10:49:17.775Z,98431.39
2018-05-14T10:51:47.164Z,98432.88
2018-05-14T10:54:18.216Z,98430.69
2018-05-14T10:56:48.327Z,98428.94
2018-05-14T10:59:20.353Z,98423.30
2018-05-14T11:01:49.435Z,98429.43
2018-05-14T11:04:19.486Z,98418.41
2018-05-14T11:06:50.642Z,98419.88
2018-05-14T11:09:20.291Z,98424.55
2018-05-14T11:11:49.687Z,98432.60
2018-05-14T11:14:19.884Z,98430.64
2018-05-14T11:16:49.394Z,98427.09
2018-05-14T11:19:18.587Z,98424.20
2018-05-14T11:21:48.914Z,98423.17
2018-05-14T11:24:18.515Z,98423.47
2018-05-14T11:26:47.541Z,98413.31
2018-05-14T11:29:19.924Z,98413.86
2018-05-14T11:31:50.421Z,98414.05
2018-05-14T11:34:22.015Z,98408.48
2018-05-14T11:36:55.311Z,98408.09
2018-05-14T11:39:25.050Z,98403.79
2018-05-14T11:41:54.565Z,98404.66
2018-05-14T11:44:27.231Z,98400.36
2018-05-14T11:46:59.191Z,98411.98
2018-05-14T11:49:28.895Z,98408.77
2018-05-14T11:51:57.587Z,98409.93
2018-05-14T11:54:29.547Z,98415.00
2018-05-14T11:57:00.091Z,98416.14
2018-05-14T11:59:29.692Z,98415.14
2018-05-14T12:01:58.596Z,98397.97
2018-05-14T12:04:27.404Z,98390.59
2018-05-14T12:06:56.414Z,98397.78
2018-05-14T12:09:25.213Z,98402.83
2018-05-14T12:11:54.077Z,98386.59
2018-05-14T12:14:26.445Z,98385.78
2018-05-14T12:16:55.562Z,98401.05
2018-05-14T12:19:24.238Z,98396.90
2018-05-14T12:21:54.410Z,98387.06
2018-05-14T12:24:24.193Z,98406.58
2018-05-14T12:26:53.857Z,98389.04
2018-05-14T12:29:22.883Z,98394.00
2018-05-14T12:31:51.855Z,98386.25
2018-05-14T12:34:21.570Z,98394.23
2018-05-14T12:36:50.209Z,98388.14
2018-05-14T12:39:19.136Z,98391.31
2018-05-14T12:41:47.936Z,98396.31
2018-05-14T12:44:17.664Z,98397.00
2018-05-14T12:46:46.490Z,98385.17
2018-05-14T12:49:15.406Z,98385.23
2018-05-14T12:51:44.307Z,98379.17
2018-05-14T12:54:14.110Z,98368.45
2018-05-14T12:56:44.219Z,98365.09
2018-05-14T12:59:13.102Z,98371.99
2018-05-14T13:01:42.430Z,98370.47
2018-05-14T13:04:11.314Z,98369.91
2018-05-14T13:06:39.900Z,98395.50
2018-05-14T13:09:09.491Z,98373.12
2018-05-14T13:11:38.194Z,98373.48
2018-05-14T13:14:07.476Z,98358.03
2018-05-14T13:16:37.330Z,98364.73
2018-05-14T13:19:06.227Z,98356.63
2018-05-14T13:21:35.810Z,98350.75
2018-05-14T13:24:06.455Z,98365.11
2018-05-14T13:26:36.542Z,98352.56
2018-05-14T13:29:06.089Z,98365.22
2018-05-14T13:31:34.898Z,98361.09
2018-05-14T13:34:04.665Z,98370.11
2018-05-14T13:36:34.105Z,98360.16
2018-05-14T13:39:03.661Z,98381.19
2018-05-14T13:41:32.377Z,98366.59
2018-05-14T13:44:01.308Z,98370.14
2018-05-14T13:46:30.579Z,98370.91
2018-05-14T13:48:59.327Z,98377.91
2018-05-14T13:51:28.022Z,98382.84
2018-05-14T13:53:57.374Z,98376.94
2018-05-14T13:56:26.607Z,98400.30
2018-05-14T13:58:56.039Z,98375.85
2018-05-14T14:01:24.707Z,98377.89
2018-05-14T14:03:53.475Z,98372.81
2018-05-14T14:06:28.449Z,98397.60
2018-05-14T14:08:57.392Z,98381.49
2018-05-14T14:11:26.588Z,98379.79
2018-05-14T14:13:55.623Z,98384.79
2018-05-14T14:16:25.353Z,98399.41
2018-05-14T14:18:54.831Z,98371.33
2018-05-14T14:21:25.364Z,98382.81
2018-05-14T14:23:55.410Z,98378.86
2018-05-14T14:26:24.297Z,98384.92
2018-05-14T14:28:54.031Z,98403.13
2018-05-14T14:31:22.703Z,98397.81
2018-05-14T14:33:51.733Z,98384.24
2018-05-14T14:36:20.696Z,98402.94
2018-05-14T14:38:50.269Z,98412.81
2018-05-14T14:41:19.927Z,98405.56
2018-05-14T14:43:52.176Z,98413.22
2018-05-14T14:46:22.863Z,98408.07
2018-05-14T14:48:54.266Z,98406.75
2018-05-14T14:51:27.341Z,98401.42
2018-05-14T14:53:57.126Z,98415.33
2018-05-14T14:56:27.366Z,98396.42
2018-05-14T14:59:00.467Z,98413.73
2018-05-14T15:01:32.574Z,98412.94
2018-05-14T15:04:07.578Z,98399.31
2018-05-14T15:06:45.072Z,98406.99
2018-05-14T15:09:14.999Z,98403.61
2018-05-14T15:11:44.590Z,98409.11
2018-05-14T15:14:13.404Z,98415.50
2018-05-14T15:16:42.839Z,98453.59
2018-05-14T15:19:11.943Z,98412.48
2018-05-14T15:21:40.617Z,98426.13
2018-05-14T15:24:09.561Z,98395.35
2018-05-14T15:26:39.327Z,98418.50
2018-05-14T15:29:08.411Z,98410.45
2018-05-14T15:31:44.697Z,98412.23
2018-05-14T15:34:14.721Z,98418.20
2018-05-14T15:36:43.630Z,98422.70
2018-05-14T15:39:12.815Z,98418.94
2018-05-14T15:41:42.471Z,98404.77
2018-05-14T15:44:12.370Z,98407.15
2018-05-14T15:46:43.590Z,98413.59
2018-05-14T15:49:12.791Z,98415.03
2018-05-14T15:51:41.567Z,98417.09
2018-05-14T15:54:15.967Z,98406.56
2018-05-14T15:56:46.874Z,98429.61
2018-05-14T15:59:16.611Z,98436.95
2018-05-14T16:01:47.155Z,98421.56
2018-05-14T16:04:19.081Z,98427.12
2018-05-14T16:06:51.546Z,98465.32
2018-05-14T16:09:25.485Z,98434.27
2018-05-14T16:11:56.508Z,98436.67
2018-05-14T16:14:29.202Z,98446.22
2018-05-14T16:16:59.262Z,98440.27
2018-05-14T16:19:30.086Z,98454.05
2018-05-14T16:22:01.416Z,98453.28
2018-05-14T16:24:32.837Z,98459.88
2018-05-14T16:27:02.970Z,98464.25
2018-05-14T16:29:35.513Z,98446.10
2018-05-14T16:32:05.946Z,98440.44
2018-05-14T16:34:39.985Z,98434.41
2018-05-14T16:37:10.315Z,98440.59
2018-05-14T16:39:42.339Z,98439.67
2018-05-14T16:42:12.836Z,98440.38
2018-05-14T16:44:43.954Z,98439.53
2018-05-14T16:47:14.791Z,98443.48
2018-05-14T16:49:45.510Z,98440.95
2018-05-14T16:52:14.258Z,98425.52
2018-05-14T16:54:45.368Z,98426.80
2018-05-14T16:57:15.415Z,98429.13
2018-05-14T16:59:44.463Z,98435.22
2018-05-14T17:02:13.156Z,98432.70
2018-05-14T17:04:43.260Z,98426.41
2018-05-14T17:07:12.297Z,98437.55
2018-05-14T17:09:41.461Z,98438.94
2018-05-14T17:12:11.195Z,98443.16
2018-05-14T17:14:43.612Z,98439.30
2018-05-14T17:17:13.477Z,98446.88
2018-05-14T17:19:42.574Z,98454.88
2018-05-14T17:22:13.047Z,98442.97
2018-05-14T17:24:42.616Z,98448.39
2018-05-14T17:27:11.975Z,98456.83
2018-05-14T17:29:40.687Z,98445.41
2018-05-14T17:32:09.620Z,98445.69
2018-05-14T17:34:39.188Z,98453.23
2018-05-14T17:37:09.500Z,98460.63
2018-05-14T17:39:38.338Z,98449.60
2018-05-14T17:42:08.480Z,98454.69
2018-05-14T17:44:39.331Z,98459.73
2018-05-14T17:47:08.828Z,98463.67
2018-05-14T17:49:38.366Z,98463.67
2018-05-14T17:52:08.118Z,98468.98
2018-05-14T17:54:38.495Z,98461.67
2018-05-14T17:57:08.278Z,98457.50
2018-05-14T17:59:38.170Z,98451.58
2018-05-14T18:02:07.188Z,98452.73
2018-05-14T18:04:36.032Z,98459.91
2018-05-14T18:07:05.484Z,98464.30
2018-05-14T18:09:35.075Z,98464.03
2018-05-14T18:12:04.040Z,98460.93
2018-05-14T18:14:32.927Z,98460.47
2018-05-14T18:17:03.565Z,98462.52
2018-05-14T18:19:38.726Z,98464.31
2018-05-14T18:25:16.296Z,98458.36
2018-05-14T18:27:51.418Z,98469.60
2018-05-14T18:30:25.979Z,98474.77
2018-05-14T18:33:01.969Z,98476.64
2018-05-14T18:35:37.104Z,98482.19
2018-05-14T18:38:06.054Z,98485.31
2018-05-14T18:40:36.198Z,98476.24
2018-05-14T18:43:05.248Z,98488.05
2018-05-14T18:45:34.553Z,98488.77
2018-05-14T18:48:05.005Z,98483.50
2018-05-14T18:50:34.741Z,98489.38
2018-05-14T18:53:06.346Z,98498.34
2018-05-14T18:55:35.653Z,98496.00
2018-05-14T18:58:06.542Z,98497.00
2018-05-14T19:00:37.061Z,98503.99
2018-05-14T19:03:05.760Z,98511.66
2018-05-14T19:05:35.852Z,98515.80
2018-05-14T19:08:06.053Z,98519.38
2018-05-14T19:10:40.992Z,98524.77
2018-05-14T19:13:13.527Z,98526.03
2018-05-14T19:15:48.057Z,98530.36
2018-05-14T19:18:18.973Z,98529.08
2018-05-14T19:20:47.946Z,98532.94
2018-05-14T19:23:22.237Z,98533.83
2018-05-14T19:25:51.966Z,98541.77
2018-05-14T19:28:26.369Z,98535.48
2018-05-14T19:30:55.309Z,98544.11
2018-05-14T19:33:29.536Z,98541.43
2018-05-14T19:36:02.866Z,98542.66
2018-05-14T19:38:31.719Z,98540.03
2018-05-14T19:41:01.414Z,98534.87
2018-05-14T19:43:30.206Z,98538.05
2018-05-14T19:45:59.001Z,98543.34
2018-05-14T19:48:28.773Z,98546.91
2018-05-14T19:50:58.228Z,98539.27
2018-05-14T19:53:27.847Z,98543.48
2018-05-14T19:55:57.178Z,98541.90
2018-05-14T19:58:25.989Z,98554.72
2018-05-14T20:00:55.519Z,98553.84
2018-05-14T20:03:24.315Z,98552.68
2018-05-14T20:05:53.993Z,98556.55
2018-05-14T20:08:22.979Z,98555.41
2018-05-14T20:10:51.828Z,98558.45
2018-05-14T20:13:21.425Z,98555.16
2018-05-14T20:15:50.418Z,98544.22
2018-05-14T20:18:22.253Z,98551.15
2018-05-14T20:20:51.471Z,98551.34
2018-05-14T20:23:20.270Z,98553.55
2018-05-14T20:25:49.216Z,98547.97
2018-05-14T20:28:18.381Z,98555.56
2018-05-14T20:30:48.114Z,98564.22
2018-05-14T20:33:16.947Z,98559.67
2018-05-14T20:35:45.956Z,98564.13
2018-05-14T20:38:14.956Z,98558.23
2018-05-14T20:40:43.815Z,98561.84
2018-05-14T20:43:12.790Z,98564.52
2018-05-14T20:45:41.611Z,98566.28
2018-05-14T20:48:11.398Z,98562.94
2018-05-14T20:50:41.427Z,98566.89
2018-05-14T20:53:11.107Z,98564.55
2018-05-14T20:55:39.701Z,98568.97
2018-05-14T20:58:09.209Z,98570.69
2018-05-14T21:00:38.663Z,98563.14
2018-05-14T21:03:07.773Z,98569.39
2018-05-14T21:05:37.047Z,98560.73
2018-05-14T21:08:06.638Z,98552.49
2018-05-14T21:10:35.560Z,98558.95
2018-05-14T21:13:05.785Z,98558.89
2018-05-14T21:15:35.210Z,98552.33
2018-05-14T21:18:04.586Z,98550.29
2018-05-14T21:20:34.253Z,98551.13
2018-05-14T21:23:03.072Z,98554.83
2018-05-14T21:25:31.810Z,98558.83
2018-05-14T21:28:00.459Z,98547.92
2018-05-14T21:30:29.320Z,98547.59
2018-05-14T21:32:58.272Z,98549.88
2018-05-14T21:35:26.996Z,98553.95
2018-05-14T21:37:56.129Z,98549.70
2018-05-14T21:40:25.046Z,98552.80
2018-05-14T21:42:53.863Z,98554.16
2018-05-14T21:45:22.527Z,98555.70
2018-05-14T21:47:53.680Z,98560.24
2018-05-14T21:50:23.627Z,98548.49
2018-05-14T21:52:52.297Z,98546.20
2018-05-14T21:55:21.489Z,98542.58
2018-05-14T21:57:50.400Z,98541.47
2018-05-14T22:00:19.407Z,98542.25
2018-05-14T22:02:48.096Z,98540.89
2018-05-14T22:05:17.413Z,98542.16
2018-05-14T22:07:46.966Z,98535.59
2018-05-14T22:10:15.519Z,98538.36
2018-05-14T22:12:44.105Z,98536.47
2018-05-14T22:15:12.895Z,98539.64
2018-05-14T22:17:42.188Z,98540.12
2018-05-14T22:20:12.022Z,98541.08
2018-05-14T22:22:41.906Z,98555.31
2018-05-14T22:25:10.684Z,98548.42
2018-05-14T22:27:39.464Z,98553.77
2018-05-14T22:30:08.283Z,98552.34
2018-05-14T22:32:37.011Z,98552.87
2018-05-14T22:35:05.609Z,98553.88
2018-05-14T22:37:34.406Z,98554.34
2018-05-14T22:40:04.156Z,98566.23
2018-05-14T22:42:32.978Z,98566.08
2018-05-14T22:45:02.808Z,98559.84
2018-05-14T22:47:31.388Z,98562.52
2018-05-14T22:50:01.189Z,98557.02
2018-05-14T22:52:30.908Z,98559.23
2018-05-14T22:55:00.538Z,98550.07
2018-05-14T22:57:29.448Z,98558.69
2018-05-14T22:59:58.228Z,98555.98
2018-05-14T23:02:26.774Z,98554.64
2018-05-14T23:04:55.469Z,98551.52
2018-05-14T23:07:25.785Z,98544.91
2018-05-14T23:09:54.481Z,98547.59
2018-05-14T23:12:23.207Z,98541.08
2018-05-14T23:14:52.818Z,98552.53
2018-05-14T23:17:21.499Z,98542.33
2018-05-14T23:19:51.553Z,98535.81
2018-05-14T23:22:20.971Z,98534.31
2018-05-14T23:24:50.307Z,98534.22
2018-05-14T23:27:19.077Z,98528.88
2018-05-14T23:29:47.743Z,98522.61
2018-05-14T23:32:16.899Z,98527.89
2018-05-14T23:34:46.573Z,98522.65
2018-05-14T23:37:15.756Z,98528.87
2018-05-14T23:39:44.425Z,98531.59
2018-05-14T23:42:13.367Z,98523.73
2018-05-14T23:44:43.151Z,98524.14
2018-05-14T23:47:11.858Z,98521.89
2018-05-14T23:49:40.854Z,98513.84
2018-05-14T23:52:10.538Z,98508.88
2018-05-14T23:54:39.649Z,98514.59
2018-05-14T23:57:09.339Z,98510.00
2018-05-14T23:59:38.005Z,98504.14
